Main page
METAR-TAF:

METAR-TAF

Airports :

Calais–Dunkerque Airport

Calais, France

latitude: 50-57-39N, longitude: 001-57-05E, elevation: 4 m

Current weather observation

The report was made 19 minutes ago, at 11:30 UTC
Wind 9 kt from the North, varying between North and Northeast
Temperature 20°C
Humidity 73%
Pressure 1017 hPa
Visibility 10 km or more
Few clouds at a height of 1200 ft

METAR: LFAC 211130Z AUTO 01009KT 350V050 9999 FEW012 20/15 Q1017

Time: 13:49 (11:49 UTC)


TAF: missing

Weather observations and forecasts of more than 4000 airports (METAR and TAF reports).

The available stations are represented by yellow and red dots on the map.

Hover mouse over dot to see the name of the station.

Then click to see weather observations and forecasts.

To change the map : click on the green buttons with a black cross to zoom in, on the green button with a dash to zoom out, or on the green arrows for adjacent maps.


METAR-TAF: